Time;durP1;ratioP1;P1;durP2;ratioP2;P2;SDS_P1;SDS_P2;PMS_P1;PMS_P2;Temp;Humidity;BMP_temperature;BMP_pressure;BME280_temperature;BME280_humidity;BME280_pressure;Samples;Min_cycle;Max_cycle;Signal;HPM_P1;HPM_P2
2021/07/16 00:01:54;;;;;;;8.73;5.12;;;;;;;21.22;73.72;100699.95;1694377;83;21515;-75
2021/07/16 00:04:21;;;;;;;8.03;5.47;;;;;;;21.23;73.77;100693.60;1691262;84;21055;-76
2021/07/16 00:06:50;;;;;;;6.70;5.15;;;;;;;21.23;73.77;100690.46;1689319;84;20984;-77
2021/07/16 00:09:16;;;;;;;11.63;5.30;;;;;;;21.24;73.46;100688.63;1689666;83;20942;-78
2021/07/16 00:11:45;;;;;;;7.83;5.20;;;;;;;21.24;73.41;100684.12;1689445;85;20930;-78
2021/07/16 00:14:11;;;;;;;8.55;5.03;;;;;;;21.24;73.61;100688.63;1689721;84;21571;-77
2021/07/16 00:16:38;;;;;;;11.57;4.95;;;;;;;21.22;73.74;100693.27;1689356;84;20913;-78
2021/07/16 00:19:06;;;;;;;6.75;4.53;;;;;;;21.18;73.51;100682.58;1689422;84;21020;-77
2021/07/16 00:21:33;;;;;;;6.08;5.03;;;;;;;21.16;73.42;100688.06;1689585;84;21014;-77
2021/07/16 00:24:01;;;;;;;7.72;4.33;;;;;;;21.15;73.13;100677.08;1689394;84;20874;-76
2021/07/16 00:26:29;;;;;;;6.67;4.25;;;;;;;21.14;72.93;100674.05;1689474;84;21188;-77
2021/07/16 00:28:57;;;;;;;7.62;4.70;;;;;;;21.13;72.71;100669.73;1689865;85;21458;-76
2021/07/16 00:31:24;;;;;;;8.90;5.05;;;;;;;21.13;72.71;100662.23;1689347;84;20965;-78
2021/07/16 00:33:51;;;;;;;7.53;4.78;;;;;;;21.13;72.48;100654.23;1689717;84;20985;-77
2021/07/16 00:36:19;;;;;;;7.08;4.92;;;;;;;21.12;72.43;100653.38;1689530;84;20913;-77
2021/07/16 00:38:46;;;;;;;8.98;4.05;;;;;;;21.11;72.21;100645.88;1689520;84;21555;-76
2021/07/16 00:41:13;;;;;;;14.40;5.00;;;;;;;21.10;72.19;100643.39;1689352;84;21569;-76
2021/07/16 00:43:41;;;;;;;5.97;4.15;;;;;;;21.09;72.19;100645.70;1689522;85;20917;-79
2021/07/16 00:46:08;;;;;;;8.45;5.00;;;;;;;21.06;72.24;100648.20;1689333;84;21355;-76
2021/07/16 00:48:35;;;;;;;9.18;4.65;;;;;;;21.01;72.37;100649.19;1689674;84;20992;-77
2021/07/16 00:51:02;;;;;;;11.63;4.35;;;;;;;20.97;72.61;100650.49;1689407;85;21102;-76
2021/07/16 00:53:29;;;;;;;10.35;4.53;;;;;;;20.94;72.72;100643.30;1689664;84;20870;-76
2021/07/16 00:55:56;;;;;;;7.17;4.30;;;;;;;20.96;72.67;100643.47;1689403;84;21521;-77
2021/07/16 00:58:22;;;;;;;7.05;3.50;;;;;;;20.98;72.85;100641.98;1689495;84;21036;-77
2021/07/16 01:00:49;;;;;;;10.20;4.62;;;;;;;20.99;72.73;100642.34;1689642;85;20870;-76
2021/07/16 01:04:07;;;;;;;6.62;4.60;;;;;;;21.03;72.98;100647.67;1798625;79;23200;-78
2021/07/16 01:06:33;;;;;;;6.83;4.70;;;;;;;20.96;73.31;100651.47;1758579;80;20884;-78
2021/07/16 01:09:00;;;;;;;6.00;4.97;;;;;;;20.95;73.55;100659.65;1758395;81;21119;-77
2021/07/16 01:11:28;;;;;;;9.35;4.03;;;;;;;20.91;73.50;100665.28;1758221;80;21386;-75
2021/07/16 01:13:57;;;;;;;6.15;4.28;;;;;;;20.88;73.71;100664.27;1758439;81;20864;-77
2021/07/16 01:16:24;;;;;;;5.83;4.58;;;;;;;20.84;73.84;100662.08;1758357;80;20888;-77
2021/07/16 01:18:51;;;;;;;8.68;4.72;;;;;;;20.80;74.04;100664.72;1758266;80;20948;-77
2021/07/16 01:21:19;;;;;;;8.58;4.50;;;;;;;20.76;74.14;100659.36;1758376;81;21102;-76
2021/07/16 01:23:47;;;;;;;8.20;4.60;;;;;;;20.70;74.31;100655.52;1764182;80;21398;-77
2021/07/16 01:26:13;;;;;;;10.88;5.10;;;;;;;20.68;74.49;100650.84;1758252;80;20848;-77
2021/07/16 01:28:42;;;;;;;10.90;5.05;;;;;;;20.69;74.65;100646.66;1758325;81;20916;-77
2021/07/16 01:31:09;;;;;;;11.93;5.00;;;;;;;20.70;74.65;100643.52;1758397;80;21003;-77
2021/07/16 01:33:36;;;;;;;10.28;5.17;;;;;;;20.72;74.61;100650.86;1758302;80;20987;-75
2021/07/16 01:36:04;;;;;;;8.30;4.75;;;;;;;20.71;74.63;100650.51;1758197;81;20888;-78
2021/07/16 01:38:31;;;;;;;8.95;4.62;;;;;;;20.72;74.58;100656.66;1758276;81;20915;-77
2021/07/16 01:40:58;;;;;;;10.28;4.35;;;;;;;20.70;74.71;100656.34;1758343;81;20904;-74
2021/07/16 01:43:26;;;;;;;8.13;4.10;;;;;;;20.67;74.80;100652.64;1758258;81;20888;-76
2021/07/16 01:45:53;;;;;;;10.70;4.92;;;;;;;20.66;74.76;100654.98;1758472;80;21574;-75
2021/07/16 01:48:19;;;;;;;10.45;4.35;;;;;;;;;;1758149;80;20931;-75
2021/07/16 01:50:48;;;;;;;10.50;5.08;;;;;;;20.67;74.77;100648.64;1758333;80;20869;-75
2021/07/16 01:53:18;;;;;;;8.93;4.87;;;;;;;20.68;74.58;100653.50;1758277;81;20908;-75
2021/07/16 01:55:46;;;;;;;8.18;5.20;;;;;;;20.67;74.64;100644.64;1758463;81;20853;-76
2021/07/16 01:58:13;;;;;;;6.60;4.53;;;;;;;20.66;74.70;100654.15;1758558;80;21486;-76
2021/07/16 02:00:44;;;;;;;10.40;4.90;;;;;;;20.65;74.93;100653.80;1758227;81;21437;-76
2021/07/16 02:03:12;;;;;;;8.95;3.65;;;;;;;20.64;75.06;100650.80;1758462;80;20893;-76
2021/07/16 02:05:41;;;;;;;10.58;4.65;;;;;;;20.62;75.08;100648.79;1758782;81;21528;-78
2021/07/16 02:08:20;;;;;;;7.08;4.90;;;;;;;20.62;75.17;100648.28;1758615;81;21460;-78
2021/07/16 02:10:49;;;;;;;11.73;5.67;;;;;;;20.64;74.94;100656.13;1757993;81;22015;-77
2021/07/16 02:13:17;;;;;;;12.63;6.85;;;;;;;20.63;74.72;100650.45;1758726;81;20880;-76
2021/07/16 02:15:45;;;;;;;9.45;6.00;;;;;;;20.62;74.37;100648.28;1757943;81;20904;-78
2021/07/16 02:18:16;;;;;;;13.35;6.92;;;;;;;20.62;74.08;100646.95;1758177;81;21374;-76
2021/07/16 02:20:43;;;;;;;16.37;7.37;;;;;;;20.63;73.93;100641.13;1757803;81;20897;-76
2021/07/16 02:23:15;;;;;;;15.03;7.67;;;;;;;20.64;73.53;100648.97;1757997;80;20962;-76
2021/07/16 02:25:42;;;;;;;17.00;6.97;;;;;;;20.66;73.35;100638.98;1757875;80;21007;-75
2021/07/16 02:28:20;;;;;;;13.80;6.87;;;;;;;20.67;73.52;100641.98;1758066;81;20920;-79
2021/07/16 02:30:47;;;;;;;17.95;6.95;;;;;;;;;;1758028;80;20967;-80
2021/07/16 02:33:14;;;;;;;11.22;6.60;;;;;;;20.68;73.23;100636.17;1758423;81;21421;-82
2021/07/16 02:35:44;;;;;;;11.50;5.95;;;;;;;20.70;73.13;100636.36;1758096;81;20964;-81
2021/07/16 02:38:11;;;;;;;13.32;5.55;;;;;;;20.73;73.27;100631.70;1758331;81;20841;-82
2021/07/16 02:40:38;;;;;;;9.83;6.17;;;;;;;20.75;73.37;100629.72;1758193;81;20908;-76
2021/07/16 02:43:05;;;;;;;11.45;5.97;;;;;;;20.77;73.37;100631.73;1758138;80;20880;-79
2021/07/16 02:45:32;;;;;;;10.32;6.37;;;;;;;20.79;73.37;100629.75;1758155;81;20979;-77
2021/07/16 02:47:59;;;;;;;10.82;6.37;;;;;;;20.79;73.35;100623.91;1758305;80;21519;-78
2021/07/16 02:50:35;;;;;;;17.67;8.65;;;;;;;20.84;73.31;100630.92;1757907;80;20932;-76
2021/07/16 02:53:07;;;;;;;13.08;6.83;;;;;;;20.86;73.16;100628.94;1758276;81;20900;-76
2021/07/16 02:55:35;;;;;;;17.55;6.47;;;;;;;20.89;72.97;100618.45;1757949;81;20893;-76
2021/07/16 02:58:03;;;;;;;20.90;7.25;;;;;;;20.94;72.90;100625.47;1758365;81;20948;-76
2021/07/16 03:00:30;;;;;;;15.53;6.78;;;;;;;20.96;72.89;100620.81;1757983;81;21539;-76
2021/07/16 03:02:58;;;;;;;15.48;7.80;;;;;;;21.00;72.99;100616.83;1754097;80;20929;-75
2021/07/16 03:05:28;;;;;;;15.13;6.80;;;;;;;21.04;72.92;100621.36;1744574;82;20869;-76
2021/07/16 03:07:55;;;;;;;12.35;7.17;;;;;;;21.08;73.18;100620.05;1744585;80;20893;-75
2021/07/16 03:10:31;;;;;;;16.65;8.10;;;;;;;21.12;73.09;100625.38;1744790;81;20929;-76
2021/07/16 03:13:01;;;;;;;20.55;8.63;;;;;;;21.18;73.06;100626.07;1744707;81;20897;-76
2021/07/16 03:15:28;;;;;;;20.08;8.28;;;;;;;21.24;72.97;100628.10;1744534;82;20868;-76
2021/07/16 03:17:55;;;;;;;19.87;7.80;;;;;;;21.29;72.88;100632.95;1744552;82;20869;-77
2021/07/16 03:20:28;;;;;;;18.02;6.97;;;;;;;21.33;72.90;100628.46;1744636;82;20901;-76
2021/07/16 03:22:55;;;;;;;15.53;6.62;;;;;;;21.39;72.76;100624.80;1744634;82;20937;-76
2021/07/16 03:25:23;;;;;;;20.88;7.03;;;;;;;21.45;72.76;100634.36;1744520;81;21155;-76
2021/07/16 03:27:50;;;;;;;19.17;7.67;;;;;;;21.50;72.33;100629.89;1744494;80;20944;-77
2021/07/16 03:30:21;;;;;;;12.70;6.15;;;;;;;21.57;72.39;100632.74;1744565;82;21343;-76
2021/07/16 03:32:48;;;;;;;16.95;7.60;;;;;;;21.63;72.22;100626.25;1744652;81;20893;-76
2021/07/16 03:35:15;;;;;;;21.87;7.17;;;;;;;21.72;72.51;100629.73;1744545;82;20842;-76
2021/07/16 03:37:44;;;;;;;17.98;8.38;;;;;;;21.79;72.43;100629.91;1744792;81;22818;-75
2021/07/16 03:40:13;;;;;;;16.15;6.60;;;;;;;21.86;72.45;100621.09;1744642;81;20955;-76
2021/07/16 03:42:40;;;;;;;16.87;6.85;;;;;;;21.96;72.25;100626.77;1744531;82;20972;-75
2021/07/16 03:45:12;;;;;;;21.65;6.65;;;;;;;22.06;71.73;100621.61;1744498;81;21413;-74
2021/07/16 03:47:37;;;;;;;13.70;6.45;;;;;;;22.13;71.22;100628.45;1744591;81;20972;-74
2021/07/16 03:50:05;;;;;;;13.03;4.85;;;;;;;22.20;70.34;100623.27;1744657;81;21082;-75
2021/07/16 03:52:32;;;;;;;18.20;7.10;;;;;;;22.28;69.70;100632.16;1744438;80;20885;-74
2021/07/16 03:54:59;;;;;;;22.52;6.45;;;;;;;22.37;69.29;100636.13;1744563;82;20996;-76
2021/07/16 03:57:26;;;;;;;19.02;6.65;;;;;;;22.44;69.35;100633.97;1744650;82;20932;-76
2021/07/16 03:59:55;;;;;;;18.52;6.78;;;;;;;22.52;69.55;100631.30;1744637;81;21420;-75
2021/07/16 04:02:21;;;;;;;14.53;6.35;;;;;;;22.60;69.45;100627.75;1744688;80;21500;-76
2021/07/16 04:04:52;;;;;;;25.35;7.97;;;;;;;22.70;69.61;100629.75;1744584;82;20929;-76
2021/07/16 04:07:25;;;;;;;17.95;6.20;;;;;;;22.82;69.83;100634.22;1744778;81;21343;-76
2021/07/16 04:09:48;;;;;;;24.32;6.33;;;;;;;22.93;69.80;100639.20;1744580;80;20940;-75
2021/07/16 04:12:19;;;;;;;16.80;6.05;;;;;;;23.04;70.01;100638.02;1744557;81;20893;-75
2021/07/16 04:14:48;;;;;;;13.58;5.20;;;;;;;23.15;70.03;100631.47;1744489;82;21148;-75
2021/07/16 04:17:17;;;;;;;8.68;5.10;;;;;;;23.32;69.12;100635.73;1744709;82;20885;-76
2021/07/16 04:19:44;;;;;;;15.43;5.58;;;;;;;23.52;68.36;100640.14;1744833;81;20916;-76
2021/07/16 04:22:12;;;;;;;13.95;6.10;;;;;;;23.75;68.17;100638.84;1744594;82;20980;-77
2021/07/16 04:24:41;;;;;;;15.75;6.55;;;;;;;24.04;67.73;100644.00;1744575;81;21374;-78
2021/07/16 04:27:08;;;;;;;19.75;6.47;;;;;;;24.41;67.18;100645.00;1744827;81;21104;-77
2021/07/16 04:29:35;;;;;;;15.05;5.67;;;;;;;24.87;66.36;100648.09;1744501;80;20913;-78
2021/07/16 04:32:02;;;;;;;10.23;5.60;;;;;;;25.35;64.84;100640.50;1744907;80;20922;-78
2021/07/16 04:34:29;;;;;;;23.15;5.67;;;;;;;25.83;63.23;100642.99;1744713;82;21415;-77
2021/07/16 04:36:56;;;;;;;42.05;8.20;;;;;;;26.31;61.83;100642.40;1745048;82;20881;-78
2021/07/16 04:39:23;;;;;;;31.75;7.75;;;;;;;26.75;60.23;100636.43;1744833;80;21454;-78
2021/07/16 04:41:50;;;;;;;8.93;5.22;;;;;;;27.19;58.68;100637.37;1744969;82;20921;-79
2021/07/16 04:44:17;;;;;;;11.30;8.65;;;;;;;27.63;56.55;100637.94;1744646;81;20929;-79
2021/07/16 04:46:44;;;;;;;12.93;5.37;;;;;;;28.03;54.66;100638.03;1744979;81;20865;-79
2021/07/16 04:49:11;;;;;;;14.68;6.05;;;;;;;28.42;53.99;100645.29;1744778;81;21426;-78
2021/07/16 04:51:38;;;;;;;17.35;5.60;;;;;;;28.77;52.82;100636.97;1745112;82;21492;-76
2021/07/16 04:54:06;;;;;;;12.37;5.85;;;;;;;29.13;51.84;100644.55;1744701;81;21019;-75
2021/07/16 04:56:33;;;;;;;10.82;5.95;;;;;;;29.48;50.60;100645.55;1744838;81;20960;-76
2021/07/16 04:59:00;;;;;;;14.85;6.53;;;;;;;29.80;49.93;100633.41;1744419;82;21577;-76
2021/07/16 05:01:27;;;;;;;17.62;6.72;;;;;;;30.09;49.38;100633.30;1744675;82;20936;-75
2021/07/16 05:03:54;;;;;;;17.75;6.95;;;;;;;30.38;48.87;100638.29;1744511;81;21087;-76
2021/07/16 05:06:22;;;;;;;18.02;7.67;;;;;;;30.62;48.82;100634.72;1744564;80;20924;-76
2021/07/16 05:08:50;;;;;;;35.90;22.55;;;;;;;30.86;48.85;100631.67;1744583;81;20932;-76
2021/07/16 05:11:18;;;;;;;15.20;8.70;;;;;;;31.15;48.14;100630.61;1744499;81;21426;-76
2021/07/16 05:13:45;;;;;;;17.52;6.12;;;;;;;31.46;46.66;100630.09;1744662;81;20889;-77
2021/07/16 05:16:13;;;;;;;12.15;6.42;;;;;;;31.75;46.87;100629.77;1744686;81;21779;-76
2021/07/16 05:18:41;;;;;;;19.12;6.00;;;;;;;32.05;46.17;100623.50;1744554;81;20979;-81
2021/07/16 05:21:10;;;;;;;17.73;6.05;;;;;;;32.34;45.30;100629.35;1744579;81;21331;-80
2021/07/16 05:23:38;;;;;;;13.28;5.15;;;;;;;32.62;44.62;100635.45;1744490;82;20903;-81
2021/07/16 05:26:05;;;;;;;13.10;4.42;;;;;;;32.85;43.70;100633.77;1744701;80;21383;-81
2021/07/16 05:28:32;;;;;;;8.70;5.15;;;;;;;33.05;43.29;100629.28;1744569;81;21127;-83
2021/07/16 05:30:59;;;;;;;11.22;3.75;;;;;;;33.29;42.36;100627.34;1744422;81;21386;-78
2021/07/16 05:33:26;;;;;;;13.60;4.60;;;;;;;33.54;41.34;100625.62;1744585;82;20881;-79
2021/07/16 05:35:53;;;;;;;10.53;4.35;;;;;;;33.80;40.24;100622.03;1744563;82;20975;-78
2021/07/16 05:38:25;;;;;;;11.10;4.53;;;;;;;34.09;39.78;100626.85;1744513;82;20900;-76
2021/07/16 05:40:52;;;;;;;11.12;5.22;;;;;;;34.37;39.77;100627.28;1744725;82;21895;-77
2021/07/16 05:43:19;;;;;;;9.95;4.25;;;;;;;34.60;39.38;100628.98;1744373;82;20929;-79
2021/07/16 05:45:46;;;;;;;18.17;8.20;;;;;;;34.82;38.08;100620.86;1744575;82;21470;-78
2021/07/16 05:48:13;;;;;;;10.95;5.47;;;;;;;35.04;37.74;100616.77;1744521;82;20913;-76
2021/07/16 05:50:43;;;;;;;12.28;4.97;;;;;;;35.28;38.19;100617.86;1744634;82;20976;-76
2021/07/16 05:53:09;;;;;;;16.77;12.18;;;;;;;35.49;37.71;100614.81;1744673;82;21136;-78
2021/07/16 05:55:36;;;;;;;10.68;5.20;;;;;;;35.67;36.81;100612.28;1744886;82;20834;-79
2021/07/16 05:58:04;;;;;;;12.93;5.47;;;;;;;35.85;35.97;100606.42;1744649;82;20925;-77
2021/07/16 06:00:31;;;;;;;12.33;5.33;;;;;;;36.05;35.49;100605.75;1744596;80;21015;-78
2021/07/16 06:02:58;;;;;;;23.87;6.67;;;;;;;36.26;35.47;100597.20;1744636;82;20944;-77
2021/07/16 06:05:27;;;;;;;19.80;7.92;;;;;;;36.40;35.50;100597.54;1744653;81;21821;-78
2021/07/16 06:07:54;;;;;;;17.85;9.40;;;;;;;36.54;34.80;100591.59;1744554;80;21350;-78
2021/07/16 06:10:23;;;;;;;20.30;10.30;;;;;;;36.69;34.75;100583.50;1744595;81;20908;-76
2021/07/16 06:12:50;;;;;;;18.57;9.73;;;;;;;36.81;34.32;100582.71;1744942;82;21546;-76
2021/07/16 06:15:18;;;;;;;19.23;10.75;;;;;;;36.97;34.84;100576.73;1744613;81;21379;-77
2021/07/16 06:17:46;;;;;;;24.50;11.53;;;;;;;37.10;35.22;100580.36;1744684;81;20877;-74
2021/07/16 06:20:14;;;;;;;22.87;12.40;;;;;;;37.23;34.34;100572.73;1744624;82;20940;-74
2021/07/16 06:22:43;;;;;;;23.87;11.85;;;;;;;37.38;33.48;100561.81;1744544;82;21047;-75
2021/07/16 06:25:11;;;;;;;27.17;11.88;;;;;;;37.57;32.98;100568.95;1744567;82;21497;-74
2021/07/16 06:27:39;;;;;;;26.57;10.48;;;;;;;37.74;32.77;100554.44;1744836;80;20932;-75
2021/07/16 06:30:08;;;;;;;23.40;11.15;;;;;;;37.94;31.85;100556.89;1745065;82;21473;-75
2021/07/16 06:32:35;;;;;;;19.27;10.78;;;;;;;38.10;31.54;100557.14;1744680;82;20881;-75
2021/07/16 06:35:03;;;;;;;16.10;9.70;;;;;;;38.27;31.27;100555.47;1744729;81;21522;-74
2021/07/16 06:37:30;;;;;;;25.08;11.18;;;;;;;38.45;31.81;100551.84;1744950;82;21031;-76
2021/07/16 06:39:57;;;;;;;21.52;11.45;;;;;;;38.61;32.17;100545.22;1744617;81;20885;-75
2021/07/16 06:42:25;;;;;;;14.47;8.75;;;;;;;38.74;31.23;100547.34;1744672;82;21139;-76
2021/07/16 06:44:53;;;;;;;18.92;9.63;;;;;;;38.88;30.19;100550.28;1744645;82;20917;-75
2021/07/16 06:47:20;;;;;;;16.40;9.33;;;;;;;39.02;29.33;100553.27;1744579;82;20983;-75
2021/07/16 06:49:48;;;;;;;14.68;9.65;;;;;;;39.13;29.32;100549.34;1708764;82;20900;-76
2021/07/16 06:52:17;;;;;;;18.82;9.13;;;;;;;39.26;30.37;100548.42;1708927;84;21359;-75
2021/07/16 06:54:44;;;;;;;18.48;10.32;;;;;;;39.31;29.34;100545.09;1708846;84;21138;-76
2021/07/16 06:57:11;;;;;;;17.05;9.90;;;;;;;39.41;29.65;100543.41;1744996;82;21466;-77
2021/07/16 06:59:38;;;;;;;16.32;11.78;;;;;;;39.46;29.67;100544.16;1744965;80;20849;-77
2021/07/16 07:02:06;;;;;;;20.10;12.58;;;;;;;39.54;29.89;100549.60;1744626;82;20889;-75
2021/07/16 07:04:33;;;;;;;27.50;16.27;;;;;;;39.62;29.22;100548.95;1750260;81;21452;-76
2021/07/16 07:07:02;;;;;;;37.63;16.35;;;;;;;39.68;28.79;100541.51;1757931;80;20885;-77
2021/07/16 07:09:30;;;;;;;43.70;18.67;;;;;;;39.77;28.63;100550.75;1757773;81;21568;-77
2021/07/16 07:11:57;;;;;;;33.95;19.55;;;;;;;39.85;29.25;100550.72;1757992;81;20987;-75
2021/07/16 07:14:25;;;;;;;40.45;21.20;;;;;;;39.91;30.02;100549.02;1758076;81;20865;-77
2021/07/16 07:16:52;;;;;;;40.70;21.75;;;;;;;39.96;30.45;100553.06;1757889;81;20960;-75
2021/07/16 07:19:19;;;;;;;31.10;17.30;;;;;;;40.03;30.20;100546.41;1758412;81;22111;-76
2021/07/16 07:21:47;;;;;;;29.25;16.30;;;;;;;40.10;28.93;100545.51;1757831;81;21322;-75
2021/07/16 07:24:14;;;;;;;29.77;13.25;;;;;;;40.20;28.46;100553.08;1757987;81;20964;-75
2021/07/16 07:26:41;;;;;;;18.77;10.05;;;;;;;40.34;28.75;100549.09;1757827;80;21022;-75
2021/07/16 07:29:08;;;;;;;19.42;9.28;;;;;;;40.44;28.77;100549.52;1758286;81;20885;-77
2021/07/16 07:31:38;;;;;;;10.75;7.53;;;;;;;40.53;28.25;100551.90;1757882;81;21958;-74
2021/07/16 07:34:05;;;;;;;12.68;6.22;;;;;;;40.60;27.78;100556.47;1757857;81;21015;-77
2021/07/16 07:36:32;;;;;;;13.18;8.45;;;;;;;40.69;27.75;100553.88;1758126;81;21469;-76
2021/07/16 07:38:59;;;;;;;13.90;7.37;;;;;;;40.79;28.89;100548.81;1758204;80;20864;-78
2021/07/16 07:41:27;;;;;;;9.80;6.15;;;;;;;40.96;28.61;100545.56;1757948;81;20940;-78
2021/07/16 07:43:56;;;;;;;7.50;5.42;;;;;;;41.11;27.22;100549.99;1757893;81;21042;-75
2021/07/16 07:46:24;;;;;;;6.97;5.80;;;;;;;41.19;27.59;100545.23;1757799;81;20884;-76
2021/07/16 07:48:51;;;;;;;8.50;5.20;;;;;;;41.26;26.46;100540.72;1758166;81;21484;-76
2021/07/16 07:51:18;;;;;;;14.90;6.12;;;;;;;41.28;26.30;100543.42;1757884;81;20896;-77
2021/07/16 07:53:45;;;;;;;9.33;5.60;;;;;;;41.28;26.47;100533.79;1757887;80;20912;-79
2021/07/16 07:56:11;;;;;;;12.33;6.25;;;;;;;41.30;27.27;100538.44;1757973;81;21508;-77
2021/07/16 07:58:40;;;;;;;10.65;6.00;;;;;;;41.36;26.21;100537.81;1757832;81;21019;-74
2021/07/16 08:01:07;;;;;;;8.08;5.47;;;;;;;41.42;26.94;100536.05;1757925;81;20888;-76
2021/07/16 08:03:34;;;;;;;8.83;5.12;;;;;;;41.43;26.22;100539.04;1758219;80;21070;-76
2021/07/16 08:06:01;;;;;;;6.58;4.85;;;;;;;41.41;25.67;100539.90;1757821;80;20948;-77
2021/07/16 08:08:28;;;;;;;7.35;4.47;;;;;;;41.45;25.29;100531.05;1758327;81;21800;-77
2021/07/16 08:10:57;;;;;;;8.95;4.83;;;;;;;41.47;25.04;100535.14;1757862;81;20983;-75
2021/07/16 08:13:26;;;;;;;11.57;4.65;;;;;;;41.52;25.09;100535.61;1757973;80;20892;-78
2021/07/16 08:15:53;;;;;;;6.70;4.55;;;;;;;41.58;25.73;100534.44;1758031;81;20897;-74
2021/07/16 08:18:20;;;;;;;7.03;3.70;;;;;;;41.59;25.09;100533.30;1757880;81;21508;-76
2021/07/16 08:20:47;;;;;;;6.60;3.50;;;;;;;41.63;24.69;100538.47;1758331;80;21119;-74
2021/07/16 08:23:13;;;;;;;12.20;4.65;;;;;;;41.71;24.36;100532.80;1757938;81;20979;-77
2021/07/16 08:25:40;;;;;;;7.47;4.45;;;;;;;41.75;24.42;100534.64;1758103;81;21007;-75
2021/07/16 08:28:07;;;;;;;9.65;4.42;;;;;;;41.80;24.64;100534.58;1758053;81;21264;-75
2021/07/16 08:30:34;;;;;;;9.08;3.70;;;;;;;41.87;24.76;100531.95;1758036;80;20924;-74
2021/07/16 08:33:01;;;;;;;10.03;3.65;;;;;;;41.84;24.13;100534.77;1758234;81;21626;-75
2021/07/16 08:35:28;;;;;;;8.73;4.05;;;;;;;41.77;23.90;100535.16;1757745;81;20864;-75
2021/07/16 08:37:55;;;;;;;11.97;4.30;;;;;;;41.75;23.96;100537.40;1758193;80;21307;-74
2021/07/16 08:40:22;;;;;;;7.37;3.67;;;;;;;41.74;23.74;100534.41;1757849;81;20905;-74
2021/07/16 08:42:49;;;;;;;7.17;5.08;;;;;;;41.69;24.29;100531.75;1758106;81;20868;-75
2021/07/16 08:45:18;;;;;;;10.85;4.60;;;;;;;41.63;24.39;100532.39;1757864;80;20920;-73
2021/07/16 08:47:45;;;;;;;10.93;4.92;;;;;;;41.52;24.06;100534.23;1758057;81;20849;-69
2021/07/16 08:50:14;;;;;;;8.33;4.50;;;;;;;41.41;24.06;100534.39;1757792;80;20892;-67
2021/07/16 08:52:44;;;;;;;9.75;5.28;;;;;;;41.32;23.75;100525.19;1758085;80;20947;-68
2021/07/16 08:55:10;;;;;;;10.03;4.03;;;;;;;41.33;23.95;100526.00;1766084;81;20979;-67
2021/07/16 08:57:39;;;;;;;13.25;4.03;;;;;;;41.39;23.59;100530.31;1757974;81;20872;-66
2021/07/16 09:00:10;;;;;;;14.33;4.78;;;;;;;41.42;24.02;100525.03;1757689;81;20908;-69
2021/07/16 09:02:54;;;;;;;10.00;4.05;;;;;;;41.40;23.12;100528.64;1758001;80;20935;-68
2021/07/16 09:05:40;;;;;;;13.93;5.30;;;;;;;41.29;23.31;100533.22;1751555;81;20941;-68
2021/07/16 09:08:19;;;;;;;6.20;4.92;;;;;;;41.25;23.50;100528.90;1744576;81;21390;-65
2021/07/16 09:10:50;;;;;;;11.70;6.15;;;;;;;41.29;23.44;100535.44;1744798;82;21144;-69
2021/07/16 09:13:18;;;;;;;9.40;6.00;;;;;;;41.31;23.80;100530.98;1744817;82;21024;-71
2021/07/16 09:15:59;;;;;;;11.97;5.33;;;;;;;41.25;23.41;100526.14;1744515;81;20924;-69
2021/07/16 09:18:29;;;;;;;11.55;6.80;;;;;;;41.06;23.58;100526.13;1744707;82;20948;-68
2021/07/16 09:21:06;;;;;;;12.88;6.20;;;;;;;40.94;23.36;100529.34;1744580;82;20948;-70
2021/07/16 09:23:45;;;;;;;12.30;6.83;;;;;;;40.93;23.48;100528.26;1744736;82;21074;-69
2021/07/16 09:26:15;;;;;;;11.22;6.12;;;;;;;40.88;23.79;100530.53;1744593;82;20932;-70
2021/07/16 09:28:47;;;;;;;9.95;5.95;;;;;;;40.85;24.32;100527.57;1744702;81;20882;-70
2021/07/16 09:31:24;;;;;;;8.05;5.28;;;;;;;40.82;24.37;100520.70;1744773;82;20978;-70
2021/07/16 09:33:57;;;;;;;8.78;5.70;;;;;;;40.80;24.09;100524.31;1744871;82;21576;-70
2021/07/16 09:36:33;;;;;;;10.48;5.80;;;;;;;40.73;23.93;100517.00;1744570;82;21145;-69
2021/07/16 09:39:16;;;;;;;10.53;6.40;;;;;;;40.74;23.77;100508.45;1744508;81;20968;-69
2021/07/16 09:41:51;;;;;;;8.80;6.33;;;;;;;40.79;23.75;100511.69;1744670;81;20948;-71
2021/07/16 09:44:41;;;;;;;8.48;5.78;;;;;;;40.82;23.46;100509.70;1744899;82;20889;-69
2021/07/16 09:47:20;;;;;;;9.73;6.67;;;;;;;40.90;23.67;100507.67;1744175;81;20869;-70
2021/07/16 09:50:10;;;;;;;7.23;6.00;;;;;;;40.93;23.76;100504.87;1745183;82;21113;-70
2021/07/16 09:52:36;;;;;;;7.85;5.65;;;;;;;40.98;23.75;100507.56;1756564;80;21550;-70
2021/07/16 09:55:16;;;;;;;10.63;5.65;;;;;;;40.94;24.00;100496.89;1744588;81;20889;-68
2021/07/16 09:57:47;;;;;;;12.30;6.35;;;;;;;40.90;23.75;100497.23;1744651;80;20936;-71
2021/07/16 10:00:23;;;;;;;10.45;6.10;;;;;;;40.82;23.97;100495.95;1745143;81;20885;-70
2021/07/16 10:02:55;;;;;;;11.22;4.85;;;;;;;40.83;24.36;100493.48;1743267;81;21147;-71
2021/07/16 10:05:23;;;;;;;12.28;5.47;;;;;;;40.87;23.79;100489.02;1749018;81;21420;-71
2021/07/16 10:07:50;;;;;;;8.45;5.67;;;;;;;40.91;24.36;100487.84;1757969;81;21003;-70
2021/07/16 10:10:21;;;;;;;9.25;5.70;;;;;;;41.00;24.01;100486.89;1757993;81;20885;-69
2021/07/16 10:12:49;;;;;;;8.93;5.50;;;;;;;41.03;24.40;100479.96;1758106;80;20892;-72
2021/07/16 10:15:20;;;;;;;13.35;5.40;;;;;;;40.92;24.71;100486.18;1757907;81;21144;-69
2021/07/16 10:17:46;;;;;;;8.48;4.70;;;;;;;40.76;24.16;100480.11;1757974;81;20856;-71
2021/07/16 10:20:15;;;;;;;10.13;5.97;;;;;;;40.56;23.86;100485.31;1757879;81;21461;-70
2021/07/16 10:22:44;;;;;;;9.78;5.58;;;;;;;40.46;24.11;100481.31;1758162;81;20948;-70
2021/07/16 10:25:17;;;;;;;8.53;5.15;;;;;;;40.39;24.61;100478.13;1758040;81;21374;-70
2021/07/16 10:27:44;;;;;;;9.15;5.25;;;;;;;40.36;24.87;100468.55;1758197;81;21139;-69
2021/07/16 10:30:14;;;;;;;7.67;5.50;;;;;;;40.38;24.98;100473.75;1757833;80;20968;-69
2021/07/16 10:32:54;;;;;;;9.45;5.30;;;;;;;40.29;25.20;100478.25;1758282;81;20947;-70
2021/07/16 10:35:30;;;;;;;6.87;5.40;;;;;;;40.14;25.11;100468.26;1757973;81;20995;-70
2021/07/16 10:38:03;;;;;;;9.73;5.00;;;;;;;40.10;26.32;100463.90;1758036;81;20912;-70
2021/07/16 10:40:43;;;;;;;11.95;5.92;;;;;;;40.18;25.93;100470.69;1758008;81;21141;-69
2021/07/16 10:43:33;;;;;;;14.53;6.15;;;;;;;40.23;25.71;100458.81;1758029;80;21441;-69
2021/07/16 10:46:00;;;;;;;8.63;6.72;;;;;;;40.30;25.28;100460.09;1757948;81;20897;-69
2021/07/16 10:48:33;;;;;;;9.88;6.97;;;;;;;40.34;25.24;100453.47;1758209;81;21049;-68
2021/07/16 10:51:02;;;;;;;9.88;6.40;;;;;;;40.34;25.77;100456.22;1757888;81;21014;-69
2021/07/16 10:53:34;;;;;;;7.60;5.90;;;;;;;40.38;25.52;100456.70;1758146;80;21090;-68
2021/07/16 10:56:08;;;;;;;10.25;6.08;;;;;;;40.45;25.73;100450.84;1757854;81;20940;-69
2021/07/16 10:58:42;;;;;;;6.60;5.70;;;;;;;40.52;25.60;100454.02;1758005;81;21359;-69
2021/07/16 11:01:09;;;;;;;10.45;5.03;;;;;;;40.42;24.78;100451.97;1757848;81;20888;-68
2021/07/16 11:03:46;;;;;;;5.78;4.83;;;;;;;40.24;25.10;100448.06;1758001;81;21020;-71
2021/07/16 11:06:15;;;;;;;8.95;5.35;;;;;;;40.12;25.20;100446.56;1757823;81;21140;-69
2021/07/16 11:08:49;;;;;;;12.78;5.35;;;;;;;39.99;25.47;100448.09;1757801;81;21444;-69
2021/07/16 11:11:21;;;;;;;8.43;4.53;;;;;;;39.84;25.58;100448.27;1757934;80;20857;-70
2021/07/16 11:13:57;;;;;;;5.42;4.90;;;;;;;39.71;25.90;100440.17;1758240;81;20897;-70
2021/07/16 11:16:31;;;;;;;8.15;4.90;;;;;;;39.42;26.23;100442.11;1757864;81;20900;-70
2021/07/16 11:19:03;;;;;;;8.45;4.75;;;;;;;39.24;26.84;100443.06;1722288;83;21167;-71
2021/07/16 11:21:49;;;;;;;8.30;4.90;;;;;;;39.20;26.94;100439.81;1721914;83;20955;-69
2021/07/16 11:24:31;;;;;;;11.30;4.53;;;;;;;39.12;26.80;100434.41;1721885;83;20892;-70
2021/07/16 11:27:17;;;;;;;14.07;5.10;;;;;;;39.01;28.05;100428.74;1720130;83;20892;-70
2021/07/16 11:29:50;;;;;;;10.48;5.35;;;;;;;39.02;27.67;100425.72;1721874;82;20900;-70